sensor_id;sensor_type;location;lat;lon;timestamp;pressure;altitude;pressure_sealevel;temperature;humidity
56330;BME280;42236;48.058;10.632;2022-12-24T00:00:14;94213.28;;;10.26;94.02
56330;BME280;42236;48.058;10.632;2022-12-24T00:03:00;94217.09;;;10.25;93.80
56330;BME280;42236;48.058;10.632;2022-12-24T00:05:49;94225.63;;;10.28;93.97
56330;BME280;42236;48.058;10.632;2022-12-24T00:08:37;94246.00;;;10.25;93.95
56330;BME280;42236;48.058;10.632;2022-12-24T00:11:23;94233.63;;;10.24;93.77
56330;BME280;42236;48.058;10.632;2022-12-24T00:14:09;94235.53;;;10.23;94.06
56330;BME280;42236;48.058;10.632;2022-12-24T00:16:54;94231.97;;;10.19;94.16
56330;BME280;42236;48.058;10.632;2022-12-24T00:19:40;94243.44;;;10.16;94.39
56330;BME280;42236;48.058;10.632;2022-12-24T00:22:29;94243.72;;;10.11;94.64
56330;BME280;42236;48.058;10.632;2022-12-24T00:25:14;94238.31;;;10.11;94.70
56330;BME280;42236;48.058;10.632;2022-12-24T00:28:00;94242.56;;;10.12;94.77
56330;BME280;42236;48.058;10.632;2022-12-24T00:30:55;94244.94;;;10.14;94.54
56330;BME280;42236;48.058;10.632;2022-12-24T00:33:41;94243.00;;;10.14;94.52
56330;BME280;42236;48.058;10.632;2022-12-24T00:36:27;94249.97;;;10.15;94.71
56330;BME280;42236;48.058;10.632;2022-12-24T00:39:12;94274.25;;;10.15;94.68
56330;BME280;42236;48.058;10.632;2022-12-24T00:41:58;94272.00;;;10.17;94.20
56330;BME280;42236;48.058;10.632;2022-12-24T00:44:51;94258.75;;;10.12;94.01
56330;BME280;42236;48.058;10.632;2022-12-24T00:47:37;94266.16;;;10.15;94.46
56330;BME280;42236;48.058;10.632;2022-12-24T00:50:23;94269.09;;;10.10;94.20
56330;BME280;42236;48.058;10.632;2022-12-24T00:53:09;94280.31;;;10.12;94.65
56330;BME280;42236;48.058;10.632;2022-12-24T00:55:55;94276.38;;;10.10;94.55
56330;BME280;42236;48.058;10.632;2022-12-24T00:58:41;94284.41;;;10.06;94.69
56330;BME280;42236;48.058;10.632;2022-12-24T01:01:27;94288.56;;;10.03;94.83
56330;BME280;42236;48.058;10.632;2022-12-24T01:04:12;94293.19;;;10.03;94.86
56330;BME280;42236;48.058;10.632;2022-12-24T01:07:16;94280.75;;;9.98;94.84
56330;BME280;42236;48.058;10.632;2022-12-24T01:10:03;94279.16;;;9.97;94.38
56330;BME280;42236;48.058;10.632;2022-12-24T01:12:50;94285.34;;;9.98;94.69
56330;BME280;42236;48.058;10.632;2022-12-24T01:15:44;94285.25;;;9.94;94.22
56330;BME280;42236;48.058;10.632;2022-12-24T01:18:30;94297.56;;;9.95;94.16
56330;BME280;42236;48.058;10.632;2022-12-24T01:21:15;94294.78;;;9.92;93.71
56330;BME280;42236;48.058;10.632;2022-12-24T01:24:01;94316.09;;;9.97;93.53
56330;BME280;42236;48.058;10.632;2022-12-24T01:27:00;94317.50;;;9.91;92.67
56330;BME280;42236;48.058;10.632;2022-12-24T01:29:46;94298.19;;;9.89;92.97
56330;BME280;42236;48.058;10.632;2022-12-24T01:32:32;94312.09;;;9.91;92.98
56330;BME280;42236;48.058;10.632;2022-12-24T01:35:18;94308.97;;;9.89;92.67
56330;BME280;42236;48.058;10.632;2022-12-24T01:38:14;94315.00;;;9.86;91.68
56330;BME280;42236;48.058;10.632;2022-12-24T01:41:03;94307.81;;;9.90;90.98
56330;BME280;42236;48.058;10.632;2022-12-24T01:44:27;94319.28;;;9.87;90.09
56330;BME280;42236;48.058;10.632;2022-12-24T01:47:26;94319.75;;;9.89;90.16
56330;BME280;42236;48.058;10.632;2022-12-24T01:50:15;94325.13;;;9.89;89.40
56330;BME280;42236;48.058;10.632;2022-12-24T01:53:03;94336.00;;;9.92;88.14
56330;BME280;42236;48.058;10.632;2022-12-24T01:55:51;94325.75;;;9.98;88.53
56330;BME280;42236;48.058;10.632;2022-12-24T01:58:45;94336.88;;;9.96;88.33
56330;BME280;42236;48.058;10.632;2022-12-24T02:01:33;94339.91;;;9.95;88.56
56330;BME280;42236;48.058;10.632;2022-12-24T02:07:34;94359.47;;;9.92;88.50
56330;BME280;42236;48.058;10.632;2022-12-24T02:10:20;94357.22;;;9.94;88.45
56330;BME280;42236;48.058;10.632;2022-12-24T02:13:06;94342.16;;;9.93;87.83
56330;BME280;42236;48.058;10.632;2022-12-24T02:22:19;94335.09;;;9.88;87.91
56330;BME280;42236;48.058;10.632;2022-12-24T02:25:49;94314.16;;;9.81;87.62
56330;BME280;42236;48.058;10.632;2022-12-24T02:35:41;94350.53;;;9.75;88.10
56330;BME280;42236;48.058;10.632;2022-12-24T02:38:53;94343.59;;;9.74;88.24
56330;BME280;42236;48.058;10.632;2022-12-24T02:41:45;94353.91;;;9.72;88.03
56330;BME280;42236;48.058;10.632;2022-12-24T02:44:57;94370.16;;;9.76;88.37
56330;BME280;42236;48.058;10.632;2022-12-24T02:47:47;94385.56;;;9.75;88.13
56330;BME280;42236;48.058;10.632;2022-12-24T02:50:36;94387.78;;;9.73;88.63
56330;BME280;42236;48.058;10.632;2022-12-24T02:53:22;94379.19;;;9.68;88.71
56330;BME280;42236;48.058;10.632;2022-12-24T03:03:06;94379.09;;;9.64;89.28
56330;BME280;42236;48.058;10.632;2022-12-24T03:06:10;94378.63;;;9.62;89.80
56330;BME280;42236;48.058;10.632;2022-12-24T03:09:01;94376.59;;;9.59;89.88
56330;BME280;42236;48.058;10.632;2022-12-24T03:12:03;94385.81;;;9.58;90.22
56330;BME280;42236;48.058;10.632;2022-12-24T03:14:51;94392.75;;;9.59;90.54
56330;BME280;42236;48.058;10.632;2022-12-24T03:17:38;94391.91;;;9.55;90.53
56330;BME280;42236;48.058;10.632;2022-12-24T03:20:47;94394.22;;;9.56;90.43
56330;BME280;42236;48.058;10.632;2022-12-24T03:23:34;94402.44;;;9.60;90.54
56330;BME280;42236;48.058;10.632;2022-12-24T03:26:20;94403.53;;;9.59;90.52
56330;BME280;42236;48.058;10.632;2022-12-24T03:29:07;94405.91;;;9.60;90.29
56330;BME280;42236;48.058;10.632;2022-12-24T03:32:00;94415.91;;;9.60;90.52
56330;BME280;42236;48.058;10.632;2022-12-24T03:34:46;94421.97;;;9.57;90.72
56330;BME280;42236;48.058;10.632;2022-12-24T03:37:35;94417.81;;;9.59;90.58
56330;BME280;42236;48.058;10.632;2022-12-24T03:40:21;94401.97;;;9.58;90.70
56330;BME280;42236;48.058;10.632;2022-12-24T03:43:10;94398.16;;;9.59;90.65
56330;BME280;42236;48.058;10.632;2022-12-24T03:46:04;94411.63;;;9.59;90.67
56330;BME280;42236;48.058;10.632;2022-12-24T03:48:50;94421.97;;;9.57;90.67
56330;BME280;42236;48.058;10.632;2022-12-24T03:51:42;94431.16;;;9.56;90.82
56330;BME280;42236;48.058;10.632;2022-12-24T03:54:27;94424.22;;;9.55;90.76
56330;BME280;42236;48.058;10.632;2022-12-24T03:57:13;94432.75;;;9.57;90.69
56330;BME280;42236;48.058;10.632;2022-12-24T03:59:59;94435.31;;;9.53;90.69
56330;BME280;42236;48.058;10.632;2022-12-24T04:02:45;94435.63;;;9.52;90.51
56330;BME280;42236;48.058;10.632;2022-12-24T04:05:31;94458.44;;;9.54;90.84
56330;BME280;42236;48.058;10.632;2022-12-24T04:08:16;94453.38;;;9.53;90.87
56330;BME280;42236;48.058;10.632;2022-12-24T04:11:09;94449.34;;;9.47;90.81
56330;BME280;42236;48.058;10.632;2022-12-24T04:13:55;94444.41;;;9.49;91.11
56330;BME280;42236;48.058;10.632;2022-12-24T04:16:41;94456.97;;;9.45;91.15
56330;BME280;42236;48.058;10.632;2022-12-24T04:19:26;94465.72;;;9.42;91.26
56330;BME280;42236;48.058;10.632;2022-12-24T04:22:12;94477.63;;;9.40;91.31
56330;BME280;42236;48.058;10.632;2022-12-24T04:24:58;94479.19;;;9.42;91.09
56330;BME280;42236;48.058;10.632;2022-12-24T04:27:46;94473.78;;;9.42;90.93
56330;BME280;42236;48.058;10.632;2022-12-24T04:30:32;94479.19;;;9.42;90.52
56330;BME280;42236;48.058;10.632;2022-12-24T04:33:18;94493.78;;;9.40;90.61
56330;BME280;42236;48.058;10.632;2022-12-24T04:36:04;94481.41;;;9.39;90.13
56330;BME280;42236;48.058;10.632;2022-12-24T04:38:50;94475.25;;;9.39;89.30
56330;BME280;42236;48.058;10.632;2022-12-24T04:41:36;94477.63;;;9.40;89.70
56330;BME280;42236;48.058;10.632;2022-12-24T04:44:22;94471.88;;;9.42;88.61
56330;BME280;42236;48.058;10.632;2022-12-24T04:47:08;94486.16;;;9.43;88.53
56330;BME280;42236;48.058;10.632;2022-12-24T04:49:55;94487.72;;;9.44;88.07
56330;BME280;42236;48.058;10.632;2022-12-24T04:52:41;94480.75;;;9.43;87.78
56330;BME280;42236;48.058;10.632;2022-12-24T04:55:27;94474.47;;;9.38;86.99
56330;BME280;42236;48.058;10.632;2022-12-24T04:58:13;94490.63;;;9.38;86.24
56330;BME280;42236;48.058;10.632;2022-12-24T05:01:06;94492.09;;;9.36;85.42
56330;BME280;42236;48.058;10.632;2022-12-24T05:03:53;94497.94;;;9.38;85.64
56330;BME280;42236;48.058;10.632;2022-12-24T05:06:39;94490.31;;;9.40;85.95
56330;BME280;42236;48.058;10.632;2022-12-24T05:09:24;94482.22;;;9.40;85.83
56330;BME280;42236;48.058;10.632;2022-12-24T05:12:10;94486.16;;;9.43;85.78
56330;BME280;42236;48.058;10.632;2022-12-24T05:14:56;94493.41;;;9.42;85.82
56330;BME280;42236;48.058;10.632;2022-12-24T05:17:42;94508.47;;;9.43;86.12
56330;BME280;42236;48.058;10.632;2022-12-24T05:20:27;94505.00;;;9.43;86.42
56330;BME280;42236;48.058;10.632;2022-12-24T05:23:21;94514.53;;;9.40;86.41
56330;BME280;42236;48.058;10.632;2022-12-24T05:26:38;94512.63;;;9.40;87.19
56330;BME280;42236;48.058;10.632;2022-12-24T05:29:24;94511.72;;;9.36;87.61
56330;BME280;42236;48.058;10.632;2022-12-24T05:32:10;94533.47;;;9.31;88.22
56330;BME280;42236;48.058;10.632;2022-12-24T05:34:58;94536.38;;;9.26;88.40
56330;BME280;42236;48.058;10.632;2022-12-24T05:37:44;94531.78;;;9.27;88.64
56330;BME280;42236;48.058;10.632;2022-12-24T05:40:30;94537.84;;;9.24;88.89
56330;BME280;42236;48.058;10.632;2022-12-24T05:43:23;94545.78;;;9.20;88.72
56330;BME280;42236;48.058;10.632;2022-12-24T05:46:11;94550.06;;;9.21;88.90
56330;BME280;42236;48.058;10.632;2022-12-24T05:48:57;94538.50;;;9.21;89.24
56330;BME280;42236;48.058;10.632;2022-12-24T05:51:43;94552.63;;;9.17;89.47
56330;BME280;42236;48.058;10.632;2022-12-24T05:54:28;94549.03;;;9.13;89.70
56330;BME280;42236;48.058;10.632;2022-12-24T05:57:15;94555.84;;;9.11;89.84
56330;BME280;42236;48.058;10.632;2022-12-24T06:00:00;94562.69;;;9.08;89.98
56330;BME280;42236;48.058;10.632;2022-12-24T06:02:46;94558.75;;;9.06;90.14
56330;BME280;42236;48.058;10.632;2022-12-24T06:05:33;94561.13;;;9.07;90.15
56330;BME280;42236;48.058;10.632;2022-12-24T06:08:19;94560.66;;;9.05;90.29
56330;BME280;42236;48.058;10.632;2022-12-24T06:11:07;94562.56;;;9.05;90.36
56330;BME280;42236;48.058;10.632;2022-12-24T06:13:54;94563.69;;;9.04;90.25
56330;BME280;42236;48.058;10.632;2022-12-24T06:16:39;94557.88;;;9.02;90.40
56330;BME280;42236;48.058;10.632;2022-12-24T06:19:25;94560.88;;;9.00;90.09
56330;BME280;42236;48.058;10.632;2022-12-24T06:22:11;94556.28;;;9.01;90.05
56330;BME280;42236;48.058;10.632;2022-12-24T06:24:56;94558.97;;;9.01;90.04
56330;BME280;42236;48.058;10.632;2022-12-24T06:27:42;94565.47;;;9.00;89.88
56330;BME280;42236;48.058;10.632;2022-12-24T06:30:28;94568.16;;;9.00;89.97
56330;BME280;42236;48.058;10.632;2022-12-24T06:33:14;94580.03;;;8.98;89.69
56330;BME280;42236;48.058;10.632;2022-12-24T06:36:00;94587.53;;;8.93;89.67
56330;BME280;42236;48.058;10.632;2022-12-24T06:38:47;94594.03;;;8.92;89.36
56330;BME280;42236;48.058;10.632;2022-12-24T06:41:32;94592.13;;;8.92;89.33
56330;BME280;42236;48.058;10.632;2022-12-24T06:44:18;94598.59;;;8.91;89.26
56330;BME280;42236;48.058;10.632;2022-12-24T06:47:04;94594.34;;;8.90;89.38
56330;BME280;42236;48.058;10.632;2022-12-24T06:49:50;94585.81;;;8.88;89.61
56330;BME280;42236;48.058;10.632;2022-12-24T06:52:35;94588.88;;;8.87;89.11
56330;BME280;42236;48.058;10.632;2022-12-24T06:55:21;94586.81;;;8.84;88.90
56330;BME280;42236;48.058;10.632;2022-12-24T06:58:07;94589.84;;;8.82;88.80
56330;BME280;42236;48.058;10.632;2022-12-24T07:00:52;94599.03;;;8.81;88.28
56330;BME280;42236;48.058;10.632;2022-12-24T07:03:39;94600.16;;;8.80;88.08
56330;BME280;42236;48.058;10.632;2022-12-24T07:06:27;94604.59;;;8.76;87.87
56330;BME280;42236;48.058;10.632;2022-12-24T07:09:13;94594.50;;;8.73;87.37
56330;BME280;42236;48.058;10.632;2022-12-24T07:11:59;94595.28;;;8.73;87.62
56330;BME280;42236;48.058;10.632;2022-12-24T07:14:44;94593.59;;;8.69;87.02
56330;BME280;42236;48.058;10.632;2022-12-24T07:17:30;94600.88;;;8.68;86.90
56330;BME280;42236;48.058;10.632;2022-12-24T07:20:15;94600.56;;;8.70;86.82
56330;BME280;42236;48.058;10.632;2022-12-24T07:23:01;94602.91;;;8.71;86.57
56330;BME280;42236;48.058;10.632;2022-12-24T07:25:47;94601.66;;;8.69;85.95
56330;BME280;42236;48.058;10.632;2022-12-24T07:28:33;94617.47;;;8.70;86.08
56330;BME280;42236;48.058;10.632;2022-12-24T07:31:19;94632.84;;;8.70;86.31
56330;BME280;42236;48.058;10.632;2022-12-24T07:34:13;94630.78;;;8.67;85.67
56330;BME280;42236;48.058;10.632;2022-12-24T07:36:59;94631.13;;;8.65;85.87
56330;BME280;42236;48.058;10.632;2022-12-24T07:39:45;94636.50;;;8.65;85.67
56330;BME280;42236;48.058;10.632;2022-12-24T07:42:30;94636.63;;;8.69;85.99
56330;BME280;42236;48.058;10.632;2022-12-24T07:45:16;94634.91;;;8.64;85.99
56330;BME280;42236;48.058;10.632;2022-12-24T07:48:02;94645.66;;;8.64;86.02
56330;BME280;42236;48.058;10.632;2022-12-24T07:50:49;94646.78;;;8.63;86.17
56330;BME280;42236;48.058;10.632;2022-12-24T07:53:34;94659.00;;;8.61;86.48
56330;BME280;42236;48.058;10.632;2022-12-24T07:56:20;94658.53;;;8.59;86.77
56330;BME280;42236;48.058;10.632;2022-12-24T07:59:06;94663.91;;;8.59;86.48
56330;BME280;42236;48.058;10.632;2022-12-24T08:01:51;94663.13;;;8.58;86.73
56330;BME280;42236;48.058;10.632;2022-12-24T08:04:37;94666.59;;;8.59;86.75
56330;BME280;42236;48.058;10.632;2022-12-24T08:07:23;94665.81;;;8.58;86.81
56330;BME280;42236;48.058;10.632;2022-12-24T08:10:09;94672.63;;;8.56;86.88
56330;BME280;42236;48.058;10.632;2022-12-24T08:12:55;94669.47;;;8.53;86.77
56330;BME280;42236;48.058;10.632;2022-12-24T08:15:41;94663.94;;;8.50;86.27
56330;BME280;42236;48.058;10.632;2022-12-24T08:18:27;94673.78;;;8.46;86.45
56330;BME280;42236;48.058;10.632;2022-12-24T08:21:13;94678.84;;;8.47;86.41
56330;BME280;42236;48.058;10.632;2022-12-24T08:23:58;94678.72;;;8.44;86.19
56330;BME280;42236;48.058;10.632;2022-12-24T08:26:44;94696.41;;;8.45;85.60
56330;BME280;42236;48.058;10.632;2022-12-24T08:29:30;94688.03;;;8.46;85.25
56330;BME280;42236;48.058;10.632;2022-12-24T08:32:15;94698.78;;;8.46;85.51
56330;BME280;42236;48.058;10.632;2022-12-24T08:35:01;94700.81;;;8.49;85.09
56330;BME280;42236;48.058;10.632;2022-12-24T08:37:47;94707.75;;;8.50;84.86
56330;BME280;42236;48.058;10.632;2022-12-24T08:40:32;94718.84;;;8.49;84.83
56330;BME280;42236;48.058;10.632;2022-12-24T08:43:18;94715.81;;;8.50;84.75
56330;BME280;42236;48.058;10.632;2022-12-24T08:46:04;94731.16;;;8.50;84.15
56330;BME280;42236;48.058;10.632;2022-12-24T08:48:50;94727.03;;;8.52;84.01
56330;BME280;42236;48.058;10.632;2022-12-24T08:51:36;94735.09;;;8.52;83.88
56330;BME280;42236;48.058;10.632;2022-12-24T08:54:22;94735.09;;;8.52;83.28
56330;BME280;42236;48.058;10.632;2022-12-24T08:57:09;94736.34;;;8.55;83.41
56330;BME280;42236;48.058;10.632;2022-12-24T08:59:55;94747.56;;;8.57;83.13
56330;BME280;42236;48.058;10.632;2022-12-24T09:02:41;94741.56;;;8.60;83.10
56330;BME280;42236;48.058;10.632;2022-12-24T09:05:26;94741.81;;;8.67;83.17
56330;BME280;42236;48.058;10.632;2022-12-24T09:08:12;94746.69;;;8.74;83.04
56330;BME280;42236;48.058;10.632;2022-12-24T09:11:03;94746.69;;;8.74;81.74
56330;BME280;42236;48.058;10.632;2022-12-24T09:13:49;94763.75;;;8.78;82.73
56330;BME280;42236;48.058;10.632;2022-12-24T09:16:34;94776.25;;;8.83;82.47
56330;BME280;42236;48.058;10.632;2022-12-24T09:19:20;94773.22;;;8.84;82.30
56330;BME280;42236;48.058;10.632;2022-12-24T09:22:05;94770.47;;;8.93;82.75
56330;BME280;42236;48.058;10.632;2022-12-24T09:24:54;94773.47;;;8.91;81.85
56330;BME280;42236;48.058;10.632;2022-12-24T09:27:40;94784.09;;;8.96;82.32
56330;BME280;42236;48.058;10.632;2022-12-24T09:30:26;94779.59;;;9.01;82.49
56330;BME280;42236;48.058;10.632;2022-12-24T09:33:11;94780.53;;;9.05;82.51
56330;BME280;42236;48.058;10.632;2022-12-24T09:35:57;94778.63;;;9.05;82.22
56330;BME280;42236;48.058;10.632;2022-12-24T09:38:43;94784.47;;;9.07;82.23
56330;BME280;42236;48.058;10.632;2022-12-24T09:44:49;94778.22;;;9.15;81.85
56330;BME280;42236;48.058;10.632;2022-12-24T09:47:51;94787.56;;;9.18;82.59
56330;BME280;42236;48.058;10.632;2022-12-24T09:50:41;94786.50;;;9.10;82.19
56330;BME280;42236;48.058;10.632;2022-12-24T09:53:43;94779.28;;;9.02;81.09
56330;BME280;42236;48.058;10.632;2022-12-24T09:56:37;94773.44;;;9.00;82.29
56330;BME280;42236;48.058;10.632;2022-12-24T09:59:27;94776.13;;;9.00;82.81
56330;BME280;42236;48.058;10.632;2022-12-24T10:02:17;94785.91;;;9.05;83.00
56330;BME280;42236;48.058;10.632;2022-12-24T10:05:11;94786.88;;;9.00;81.90
56330;BME280;42236;48.058;10.632;2022-12-24T10:11:25;94780.56;;;8.96;80.80
56330;BME280;42236;48.058;10.632;2022-12-24T10:14:34;94786.56;;;9.02;80.25
56330;BME280;42236;48.058;10.632;2022-12-24T10:23:15;94781.91;;;9.11;82.37
56330;BME280;42236;48.058;10.632;2022-12-24T10:26:26;94782.97;;;9.18;81.56
56330;BME280;42236;48.058;10.632;2022-12-24T10:29:23;94784.69;;;9.23;81.21
56330;BME280;42236;48.058;10.632;2022-12-24T10:32:24;94776.63;;;9.23;81.35
56330;BME280;42236;48.058;10.632;2022-12-24T10:37:59;94786.66;;;9.14;82.59
56330;BME280;42236;48.058;10.632;2022-12-24T10:40:47;94777.19;;;9.08;82.21
56330;BME280;42236;48.058;10.632;2022-12-24T10:43:37;94770.34;;;8.89;81.59
56330;BME280;42236;48.058;10.632;2022-12-24T10:46:34;94776.56;;;8.81;82.67
56330;BME280;42236;48.058;10.632;2022-12-24T10:49:35;94784.91;;;8.88;83.34
56330;BME280;42236;48.058;10.632;2022-12-24T10:52:27;94793.25;;;8.95;83.63
56330;BME280;42236;48.058;10.632;2022-12-24T10:58:07;94801.56;;;9.11;83.04
56330;BME280;42236;48.058;10.632;2022-12-24T11:00:57;94799.44;;;9.17;83.06
56330;BME280;42236;48.058;10.632;2022-12-24T11:03:43;94793.75;;;9.18;82.71
56330;BME280;42236;48.058;10.632;2022-12-24T11:06:29;94794.53;;;9.19;82.75
56330;BME280;42236;48.058;10.632;2022-12-24T11:09:27;94801.66;;;9.15;82.25
56330;BME280;42236;48.058;10.632;2022-12-24T11:12:21;94796.50;;;9.10;82.30
56330;BME280;42236;48.058;10.632;2022-12-24T11:15:30;94795.13;;;9.04;82.16
56330;BME280;42236;48.058;10.632;2022-12-24T11:18:17;94784.50;;;8.98;83.23
56330;BME280;42236;48.058;10.632;2022-12-24T11:21:04;94795.75;;;9.01;83.79
56330;BME280;42236;48.058;10.632;2022-12-24T11:23:53;94781.81;;;8.98;83.39
56330;BME280;42236;48.058;10.632;2022-12-24T11:26:41;94776.59;;;9.02;83.73
56330;BME280;42236;48.058;10.632;2022-12-24T11:29:27;94774.97;;;9.10;83.69
56330;BME280;42236;48.058;10.632;2022-12-24T11:32:17;94773.81;;;9.11;83.25
56330;BME280;42236;48.058;10.632;2022-12-24T11:35:11;94778.13;;;9.12;83.61
56330;BME280;42236;48.058;10.632;2022-12-24T11:40:48;94771.13;;;9.11;83.27
56330;BME280;42236;48.058;10.632;2022-12-24T11:43:46;94768.78;;;9.09;83.20
56330;BME280;42236;48.058;10.632;2022-12-24T11:49:23;94760.63;;;9.18;83.82
56330;BME280;42236;48.058;10.632;2022-12-24T11:55:02;94768.53;;;9.23;83.24
56330;BME280;42236;48.058;10.632;2022-12-24T11:57:57;94774.81;;;9.27;82.90
56330;BME280;42236;48.058;10.632;2022-12-24T12:00:46;94774.31;;;9.34;82.99
56330;BME280;42236;48.058;10.632;2022-12-24T12:03:37;94773.78;;;9.40;83.00
56330;BME280;42236;48.058;10.632;2022-12-24T12:09:28;94779.56;;;9.51;82.07
56330;BME280;42236;48.058;10.632;2022-12-24T12:12:30;94779.81;;;9.58;81.99
56330;BME280;42236;48.058;10.632;2022-12-24T12:15:42;94779.94;;;9.62;81.12
56330;BME280;42236;48.058;10.632;2022-12-24T12:18:37;94777.91;;;9.59;81.05
56330;BME280;42236;48.058;10.632;2022-12-24T12:21:45;94774.78;;;9.57;81.11
56330;BME280;42236;48.058;10.632;2022-12-24T12:24:36;94778.56;;;9.56;82.32
56330;BME280;42236;48.058;10.632;2022-12-24T12:27:42;94788.34;;;9.39;80.44
56330;BME280;42236;48.058;10.632;2022-12-24T12:30:29;94798.34;;;9.39;82.16
56330;BME280;42236;48.058;10.632;2022-12-24T12:33:27;94785.75;;;9.31;81.32
56330;BME280;42236;48.058;10.632;2022-12-24T12:36:18;94790.19;;;9.27;81.30
56330;BME280;42236;48.058;10.632;2022-12-24T12:39:05;94788.09;;;9.32;82.24
56330;BME280;42236;48.058;10.632;2022-12-24T12:42:44;94791.03;;;9.39;81.46
56330;BME280;42236;48.058;10.632;2022-12-24T12:48:41;94804.13;;;9.50;80.67
56330;BME280;42236;48.058;10.632;2022-12-24T12:55:04;94805.16;;;9.36;79.05
56330;BME280;42236;48.058;10.632;2022-12-24T12:58:04;94802.16;;;9.38;81.58
56330;BME280;42236;48.058;10.632;2022-12-24T13:00:55;94802.47;;;9.36;80.75
56330;BME280;42236;48.058;10.632;2022-12-24T13:13:19;94802.94;;;9.38;79.46
56330;BME280;42236;48.058;10.632;2022-12-24T13:22:31;94804.00;;;9.46;81.30
56330;BME280;42236;48.058;10.632;2022-12-24T13:25:22;94812.59;;;9.39;80.97
56330;BME280;42236;48.058;10.632;2022-12-24T13:33:58;94807.31;;;9.22;81.58
56330;BME280;42236;48.058;10.632;2022-12-24T13:37:04;94800.56;;;9.16;80.55
56330;BME280;42236;48.058;10.632;2022-12-24T13:45:51;94803.81;;;9.01;82.20
56330;BME280;42236;48.058;10.632;2022-12-24T13:48:36;94790.75;;;8.90;82.32
56330;BME280;42236;48.058;10.632;2022-12-24T13:51:24;94793.63;;;8.85;82.57
56330;BME280;42236;48.058;10.632;2022-12-24T13:54:12;94796.03;;;8.78;82.74
56330;BME280;42236;48.058;10.632;2022-12-24T13:56:59;94797.66;;;8.70;82.92
56330;BME280;42236;48.058;10.632;2022-12-24T13:59:45;94797.97;;;8.69;83.21
56330;BME280;42236;48.058;10.632;2022-12-24T14:02:35;94795.94;;;8.66;83.31
56330;BME280;42236;48.058;10.632;2022-12-24T14:05:30;94809.41;;;8.66;83.21
56330;BME280;42236;48.058;10.632;2022-12-24T14:11:12;94812.56;;;8.68;83.34
56330;BME280;42236;48.058;10.632;2022-12-24T14:16:50;94804.94;;;8.70;83.63
56330;BME280;42236;48.058;10.632;2022-12-24T14:19:46;94812.56;;;8.68;83.18
56330;BME280;42236;48.058;10.632;2022-12-24T14:22:36;94818.56;;;8.65;83.53
56330;BME280;42236;48.058;10.632;2022-12-24T14:25:23;94827.75;;;8.64;83.62
56330;BME280;42236;48.058;10.632;2022-12-24T14:28:14;94820.66;;;8.59;83.54
56330;BME280;42236;48.058;10.632;2022-12-24T14:31:05;94810.84;;;8.54;83.94
56330;BME280;42236;48.058;10.632;2022-12-24T14:34:06;94818.13;;;8.54;83.70
56330;BME280;42236;48.058;10.632;2022-12-24T14:36:54;94824.94;;;8.51;84.00
56330;BME280;42236;48.058;10.632;2022-12-24T14:39:47;94822.56;;;8.50;84.24
56330;BME280;42236;48.058;10.632;2022-12-24T14:46:24;94826.69;;;8.47;84.39
56330;BME280;42236;48.058;10.632;2022-12-24T14:49:20;94828.91;;;8.45;84.69
56330;BME280;42236;48.058;10.632;2022-12-24T14:55:27;94821.66;;;8.37;84.89
56330;BME280;42236;48.058;10.632;2022-12-24T14:58:30;94822.47;;;8.29;85.10
56330;BME280;42236;48.058;10.632;2022-12-24T15:01:25;94817.72;;;8.26;85.36
56330;BME280;42236;48.058;10.632;2022-12-24T15:06:57;94831.97;;;8.18;85.52
56330;BME280;42236;48.058;10.632;2022-12-24T15:09:43;94836.75;;;8.12;85.86
56330;BME280;42236;48.058;10.632;2022-12-24T15:12:30;94830.72;;;8.06;86.08
56330;BME280;42236;48.058;10.632;2022-12-24T15:15:17;94824.44;;;8.02;86.23
56330;BME280;42236;48.058;10.632;2022-12-24T15:18:03;94835.81;;;7.99;86.30
56330;BME280;42236;48.058;10.632;2022-12-24T15:20:51;94832.19;;;7.95;86.41
56330;BME280;42236;48.058;10.632;2022-12-24T15:23:46;94840.88;;;7.92;86.58
56330;BME280;42236;48.058;10.632;2022-12-24T15:26:33;94841.03;;;7.87;86.86
56330;BME280;42236;48.058;10.632;2022-12-24T15:29:26;94838.69;;;7.85;87.00
56330;BME280;42236;48.058;10.632;2022-12-24T15:32:14;94846.56;;;7.82;87.11
56330;BME280;42236;48.058;10.632;2022-12-24T15:35:01;94853.38;;;7.79;87.17
56330;BME280;42236;48.058;10.632;2022-12-24T15:37:46;94842.47;;;7.76;87.34
56330;BME280;42236;48.058;10.632;2022-12-24T15:40:32;94838.50;;;7.73;87.37
56330;BME280;42236;48.058;10.632;2022-12-24T15:43:19;94843.44;;;7.71;87.59
56330;BME280;42236;48.058;10.632;2022-12-24T15:46:05;94838.38;;;7.69;87.73
56330;BME280;42236;48.058;10.632;2022-12-24T15:48:52;94839.16;;;7.70;87.70
56330;BME280;42236;48.058;10.632;2022-12-24T15:51:39;94836.16;;;7.72;87.58
56330;BME280;42236;48.058;10.632;2022-12-24T15:54:25;94833.78;;;7.70;87.72
56330;BME280;42236;48.058;10.632;2022-12-24T15:57:31;94828.75;;;7.68;87.55
56330;BME280;42236;48.058;10.632;2022-12-24T16:00:25;94832.38;;;7.64;87.63
56330;BME280;42236;48.058;10.632;2022-12-24T16:03:19;94839.16;;;7.61;87.75
56330;BME280;42236;48.058;10.632;2022-12-24T16:06:09;94849.44;;;7.59;87.71
56330;BME280;42236;48.058;10.632;2022-12-24T16:08:56;94859.38;;;7.59;87.90
56330;BME280;42236;48.058;10.632;2022-12-24T16:11:43;94847.84;;;7.58;87.76
56330;BME280;42236;48.058;10.632;2022-12-24T16:14:29;94847.84;;;7.58;87.64
56330;BME280;42236;48.058;10.632;2022-12-24T16:17:24;94844.38;;;7.58;87.77
56330;BME280;42236;48.058;10.632;2022-12-24T16:20:19;94845.78;;;7.55;87.93
56330;BME280;42236;48.058;10.632;2022-12-24T16:23:15;94860.31;;;7.54;88.09
56330;BME280;42236;48.058;10.632;2022-12-24T16:26:01;94859.84;;;7.52;88.01
56330;BME280;42236;48.058;10.632;2022-12-24T16:28:47;94859.84;;;7.52;88.10
56330;BME280;42236;48.058;10.632;2022-12-24T16:31:36;94871.69;;;7.51;88.19
56330;BME280;42236;48.058;10.632;2022-12-24T16:34:25;94864.75;;;7.50;88.32
56330;BME280;42236;48.058;10.632;2022-12-24T16:37:11;94869.63;;;7.48;88.51
56330;BME280;42236;48.058;10.632;2022-12-24T16:39:57;94877.19;;;7.46;88.38